AirNav   Pilot Hours Calculator
 
 742 users online  

61FD Advent Health Palm Coast Heliport
Palm Coast, Florida, USA

GOING TO PALM COAST?


FAA INFORMATION EFFECTIVE 02 JANUARY 2020

Location

FAA Identifier: 61FD
Lat/Long: 29-28-44.0000N 081-11-30.0000W
29-28.733333N 081-11.500000W
29.4788889,-81.1916667
(estimated)
Elevation: 25 ft. / 8 m (estimated)
From city: 3 miles NE of PALM COAST, FL
Time zone: UTC -5 (UTC -4 during Daylight Saving Time)
Zip code: 32110

Heliport Operations

Heliport use: Private use. Permission required prior to landing
Activation date: 06/2005
Control tower: no
ARTCC: JACKSONVILLE CENTER
FSS: GAINESVILLE FLIGHT SERVICE STATION
Attendance: CONTINUOUS
Segmented circle: no
Lights: SS-SR

Heliport Communications

WX AWOS-3 at FIN (1.2 nm SW): 128.325 (386-437-7334)
WX AWOS-3 at OMN (11 nm S): 118.475 (386-615-7084)
WX ASOS at DAB (19 nm S): PHONE 386-253-7469

Nearby radio navigation aids

VOR radial/distance  VOR name  Freq  Var
OMNr339/11.3ORMOND BEACH VORTAC112.6000E
SGJr172/29.6ST AUGUSTINE VOR/DME109.4006W

 
NDB name  Hdg/Dist  Freq  Var  ID
REYNOLDS147/38.033807WRYD .-. -.-- -..

Heliport Services

Runway Information

Helipad H1

Dimensions: 60 x 60 ft. / 18 x 18 m
Surface: concrete
Runway edge lights: PERI
Latitude: 29-28.756833N
Longitude: 081-11.429833W
Elevation: 25.0 ft.
Traffic pattern: leftleft

Heliport Ownership and Management from official FAA records

Ownership: Privately-owned
Owner: ADVENTIST HEALTH SYSTEM
900 HOPE WAY
ALTAMONTE SPRINGS, FL 32714
Phone (407) 357-1000
Manager: RON JIMENEZ
60 MEMORIAL MEDICAL PARKWAY
PALM COAST, FL 32164
Phone (386) 586-2000

Additional Remarks

78 FT PLINE 1200 FT W; 40 FT BLDG 245 FT E; 50 FT TREES 300 FT N; AND 50 FT TREES 275 FT W OF PAD.
FOR CD CTC DAYTONA APCH AT 386-226-3939.

Instrument Procedures

There are no published instrument procedures at 61FD.

Some nearby airports with instrument procedures:

KFIN - Flagler Executive Airport (1 nm SW)
KOMN - Ormond Beach Municipal Airport (11 nm S)
KDAB - Daytona Beach International Airport (19 nm S)
KDED - DeLand Municipal Airport-Sidney H Taylor Field (25 nm S)
28J - Palatka Municipal Airport - Lt. Kay Larkin Field (28 nm NW)
 
Loc | Ops | Rwys | IFR | FBO | Links
Com | Nav | Svcs | Stats | Notes
Area around 61FD (Advent Health Palm Coast Heliport)
 
Road maps at: MapQuest Bing Google
 
Aerial photo
WARNING: Photo may not be current or correct
Aerial photo of 61FD (Advent Health Palm Coast Heliport)
Photo by Don F. Pease
Photo taken 24-Oct-2006
looking east.

Do you have a better or more recent aerial photo of Advent Health Palm Coast Heliport that you would like to share? If so, please send us your photo.

 
Sectional chart

 
Airport distance calculator
Flying to Advent Health Palm Coast Heliport? Find the distance to fly.

From to 61FD

Sunrise and sunset
Times for 19-Jan-2020
 Local
(UTC-5)
 Zulu
(UTC)
Morning civil twilight06:5511:55
Sunrise07:2112:21
Sunset17:5122:51
Evening civil twilight18:1623:16

Current date and time
Zulu (UTC)  19-Jan-2020 11:53:14
Local (UTC-5)  19-Jan-2020 06:53:14
 
METAR
KFIN 191050Z 23010KT 10SM CLR 17/15 A3011
KOMN 
11nm S 
182350Z 14003KT 7SM CLR 20/16 A3025 RMK LAST
KDAB 
19nm S 
191053Z 20005KT 10SM SCT250 17/16 A3011 RMK AO2 SLP197 T01720161
TAF
KDAB 
19nm S 
190539Z 1906/2006 19004KT P6SM BKN250 FM191500 21008KT P6SM VCSH SCT035 BKN250 FM192000 24009KT P6SM VCSH BKN025 BKN250 FM200100 32011KT P6SM BKN025 BKN100
NOTAMs
Click for the latest NOTAMs
NOTAMs are issued by the DoD/FAA and will open in a separate window not controlled by AirNav.

 

 
 

Would you like to see your business listed on this page?

 If your business provides an interesting product or service to pilots, flight crews, aircraft, or users of the Advent Health Palm Coast Heliport, you should consider listing it here.  To start the listing process, click on the button below
 
Add a business
 

Other Pages about Advent Health Palm Coast Heliport

Update a link
 
Copyright © AirNav, LLC. All rights reserved. Privacy Policy  Contact